Time;durP1;ratioP1;P1;durP2;ratioP2;P2;SDS_P1;SDS_P2;PMS_P1;PMS_P2;Temp;Humidity;BMP_temperature;BMP_pressure;BME280_temperature;BME280_humidity;BME280_pressure;Samples;Min_cycle;Max_cycle;Signal;HPM_P1;HPM_P2
2022/08/23 00:03:01;;;;;;;6.75;4.30;;;17.00;99.90;;;;;;7315872;32;20172;-65
2022/08/23 00:07:09;;;;;;;6.82;3.85;;;17.00;99.90;;;;;;7309864;32;20104;-65
2022/08/23 00:11:54;;;;;;;8.35;3.75;;;16.90;99.90;;;;;;7317670;32;20108;-65
2022/08/23 00:15:55;;;;;;;4.40;4.00;;;16.80;99.90;;;;;;7283942;32;20134;-64
2022/08/23 00:19:57;;;;;;;7.95;3.85;;;16.70;99.90;;;;;;7318527;32;20186;-65
2022/08/23 00:23:59;;;;;;;4.68;3.70;;;16.60;99.90;;;;;;7315813;32;20199;-65
2022/08/23 00:28:01;;;;;;;5.95;3.60;;;16.60;99.90;;;;;;7318734;32;20135;-66
2022/08/23 00:32:08;;;;;;;7.85;4.60;;;16.60;99.90;;;;;;7301055;32;20119;-66
2022/08/23 00:36:10;;;;;;;7.00;4.35;;;16.50;99.90;;;;;;7316993;32;20210;-66
2022/08/23 00:40:16;;;;;;;7.62;4.22;;;16.30;99.90;;;;;;7322706;32;20218;-66
2022/08/23 00:48:44;;;;;;;4.70;3.92;;;16.10;99.90;;;;;;7311749;32;20111;-65
2022/08/23 00:52:57;;;;;;;7.22;4.32;;;16.10;99.90;;;;;;7311651;32;20162;-65
2022/08/23 00:57:04;;;;;;;9.45;3.92;;;15.90;99.90;;;;;;7320892;32;20233;-66
2022/08/23 01:01:06;;;;;;;8.18;4.15;;;15.90;99.90;;;;;;7324392;32;20237;-66
2022/08/23 01:05:08;;;;;;;8.50;4.40;;;15.90;99.90;;;;;;7322125;32;20127;-65
2022/08/23 01:09:17;;;;;;;5.50;3.97;;;15.90;99.90;;;;;;7326971;32;20268;-65
2022/08/23 01:13:41;;;;;;;5.75;3.80;;;15.80;99.90;;;;;;7325698;32;20145;-65
2022/08/23 01:17:49;;;;;;;5.30;4.25;;;15.70;99.90;;;;;;7323193;32;20169;-65
2022/08/23 01:21:58;;;;;;;7.35;4.28;;;15.60;99.90;;;;;;7320525;32;20276;-66
2022/08/23 01:26:00;;;;;;;6.62;4.32;;;15.60;99.90;;;;;;7323354;32;20123;-65
2022/08/23 01:30:08;;;;;;;7.35;4.57;;;15.60;99.90;;;;;;7318591;32;20266;-65
2022/08/23 01:34:12;;;;;;;6.82;4.07;;;15.60;99.90;;;;;;7324862;32;20742;-65
2022/08/23 01:38:14;;;;;;;9.90;4.40;;;15.50;99.90;;;;;;7312328;32;20116;-66
2022/08/23 01:42:16;;;;;;;7.78;4.40;;;15.40;99.90;;;;;;7324312;32;20115;-66
2022/08/23 01:46:21;;;;;;;6.37;4.60;;;15.40;99.90;;;;;;7323670;32;20263;-66
2022/08/23 01:50:24;;;;;;;6.93;4.45;;;15.30;99.90;;;;;;7322417;32;20104;-64
2022/08/23 01:54:25;;;;;;;4.25;3.85;;;15.30;99.90;;;;;;7321575;32;20139;-65
2022/08/23 01:58:30;;;;;;;7.43;4.50;;;15.20;99.90;;;;;;7322499;32;20126;-66
2022/08/23 02:02:32;;;;;;;8.70;4.40;;;15.10;99.90;;;;;;7320226;32;20199;-66
2022/08/23 02:06:34;;;;;;;7.18;4.30;;;15.10;99.90;;;;;;7319620;32;20099;-65
2022/08/23 02:10:37;;;;;;;4.55;3.83;;;14.90;99.90;;;;;;7315124;32;20091;-63
2022/08/23 02:14:40;;;;;;;9.02;5.18;;;14.90;99.90;;;;;;7305133;32;20142;-65
2022/08/23 02:18:43;;;;;;;8.60;4.32;;;14.80;99.90;;;;;;7320701;32;20260;-64
2022/08/23 02:22:45;;;;;;;6.93;4.12;;;14.90;99.90;;;;;;7307895;32;20112;-65
2022/08/23 02:26:50;;;;;;;8.02;4.47;;;14.80;99.90;;;;;;7304123;32;20123;-66
2022/08/23 02:30:57;;;;;;;8.70;4.32;;;14.70;99.90;;;;;;7319646;32;20100;-65
2022/08/23 02:34:59;;;;;;;7.30;4.80;;;14.70;99.90;;;;;;7315078;32;20107;-66
2022/08/23 02:39:07;;;;;;;8.65;4.70;;;14.60;99.90;;;;;;7318304;32;20468;-65
2022/08/23 02:43:09;;;;;;;7.55;4.82;;;14.50;99.90;;;;;;7321648;32;20168;-63
2022/08/23 02:47:11;;;;;;;5.22;4.50;;;14.50;99.90;;;;;;7309654;32;20697;-66
2022/08/23 02:51:13;;;;;;;7.43;4.72;;;14.50;99.90;;;;;;7318439;32;20156;-63
2022/08/23 02:55:15;;;;;;;7.45;4.70;;;14.50;99.90;;;;;;7315830;32;20180;-65
2022/08/23 02:59:18;;;;;;;9.15;4.85;;;14.40;99.90;;;;;;7322132;32;20568;-66
2022/08/23 03:03:20;;;;;;;6.03;4.35;;;14.40;99.90;;;;;;7321772;32;20128;-65
2022/08/23 03:07:23;;;;;;;6.55;4.97;;;14.40;99.90;;;;;;7325406;32;20095;-65
2022/08/23 03:11:25;;;;;;;6.37;5.37;;;14.40;99.90;;;;;;7319279;32;20553;-65
2022/08/23 03:15:27;;;;;;;7.87;5.45;;;14.40;99.90;;;;;;7317631;32;20289;-65
2022/08/23 03:19:29;;;;;;;5.87;4.70;;;14.40;99.90;;;;;;7320434;32;20116;-65
2022/08/23 03:23:31;;;;;;;9.73;4.60;;;14.20;99.90;;;;;;7318557;32;20363;-66
2022/08/23 03:27:34;;;;;;;9.30;4.95;;;14.20;99.90;;;;;;7302573;32;20264;-65
2022/08/23 03:31:45;;;;;;;6.37;4.53;;;14.20;99.90;;;;;;7311117;32;20092;-63
2022/08/23 03:35:47;;;;;;;7.95;4.80;;;14.20;99.90;;;;;;7315273;32;20179;-63
2022/08/23 03:39:50;;;;;;;5.78;4.90;;;14.20;99.90;;;;;;7312433;32;20119;-66
2022/08/23 03:43:52;;;;;;;6.50;4.87;;;14.10;99.90;;;;;;7299727;32;20119;-66
2022/08/23 03:47:54;;;;;;;8.00;4.40;;;14.10;99.90;;;;;;7311601;32;20112;-62
2022/08/23 03:51:57;;;;;;;8.60;4.55;;;14.10;99.90;;;;;;7316996;32;20195;-64
2022/08/23 03:55:58;;;;;;;10.88;5.15;;;14.10;99.90;;;;;;7304322;32;20133;-64
2022/08/23 04:00:00;;;;;;;5.93;4.40;;;14.00;99.90;;;;;;7309507;32;20119;-65
2022/08/23 04:04:03;;;;;;;7.55;4.85;;;14.00;99.90;;;;;;7316960;32;20227;-66
2022/08/23 04:08:09;;;;;;;7.57;4.53;;;14.00;99.90;;;;;;7316319;32;20305;-66
2022/08/23 04:12:11;;;;;;;7.60;5.05;;;13.90;99.90;;;;;;7313408;32;20824;-65
2022/08/23 04:16:19;;;;;;;;;;;13.90;99.90;;;;;;7313539;32;20432;-66
2022/08/23 04:20:20;;;;;;;7.07;4.35;;;13.80;99.90;;;;;;7313046;32;20201;-66
2022/08/23 04:24:23;;;;;;;7.30;5.05;;;13.80;99.90;;;;;;7301049;32;20099;-64
2022/08/23 04:28:24;;;;;;;9.02;4.60;;;13.80;99.90;;;;;;7317479;32;20526;-65
2022/08/23 04:32:26;;;;;;;10.32;5.00;;;13.80;99.90;;;;;;7319976;32;20491;-66
2022/08/23 04:36:34;;;;;;;6.50;4.50;;;13.70;99.90;;;;;;7315296;32;20107;-65
2022/08/23 04:44:56;;;;;;;5.47;4.70;;;13.70;99.90;;;;;;7319438;32;20215;-65
2022/08/23 04:48:58;;;;;;;6.87;4.70;;;13.70;99.90;;;;;;7312313;32;20207;-63
2022/08/23 04:53:00;;;;;;;5.90;4.70;;;13.80;99.90;;;;;;7317343;32;20264;-63
2022/08/23 04:57:02;;;;;;;9.95;5.50;;;13.70;99.90;;;;;;7308317;32;20134;-64
2022/08/23 05:01:09;;;;;;;20.15;15.13;;;13.70;99.90;;;;;;7304982;32;20197;-64
2022/08/23 05:05:11;;;;;;;9.00;5.15;;;13.70;99.90;;;;;;7315146;32;20297;-63
2022/08/23 05:09:13;;;;;;;14.87;10.63;;;13.80;99.90;;;;;;7314647;32;20099;-63
2022/08/23 05:13:22;;;;;;;10.23;7.22;;;13.80;99.90;;;;;;7305559;32;20108;-62
2022/08/23 05:17:23;;;;;;;8.48;5.47;;;13.80;99.90;;;;;;7322829;32;20132;-63
2022/08/23 05:21:25;;;;;;;8.35;5.72;;;13.80;99.90;;;;;;7320180;32;20099;-62
2022/08/23 05:25:48;;;;;;;5.43;4.68;;;13.90;99.90;;;;;;7311244;32;20245;-62
2022/08/23 05:29:54;;;;;;;8.82;4.37;;;14.00;99.90;;;;;;7316216;32;20160;-63
2022/08/23 05:33:56;;;;;;;6.65;4.68;;;14.10;99.90;;;;;;7315877;32;20131;-62
2022/08/23 05:37:59;;;;;;;8.25;5.53;;;14.20;99.90;;;;;;7310605;32;20172;-63
2022/08/23 05:42:01;;;;;;;7.47;5.82;;;14.30;99.90;;;;;;7318328;32;20346;-62
2022/08/23 05:46:12;;;;;;;7.53;5.12;;;14.50;99.90;;;;;;7315370;32;20270;-62
2022/08/23 05:50:14;;;;;;;6.40;5.03;;;14.50;99.90;;;;;;7309704;32;20107;-63
2022/08/23 05:54:15;;;;;;;9.80;5.18;;;14.80;99.90;;;;;;7319970;32;20713;-68
2022/08/23 05:58:17;;;;;;;12.23;8.73;;;14.80;99.90;;;;;;7321018;32;20096;-66
2022/08/23 06:02:19;;;;;;;16.75;7.18;;;15.00;99.90;;;;;;7313246;32;20222;-67
2022/08/23 06:06:21;;;;;;;12.93;6.18;;;15.10;99.90;;;;;;7324599;32;20940;-66
2022/08/23 06:10:36;;;;;;;5.93;4.97;;;15.40;99.90;;;;;;7318554;32;20538;-66
2022/08/23 06:14:42;;;;;;;;;;;15.60;99.90;;;;;;7319341;32;20205;-68
2022/08/23 06:18:45;;;;;;;9.70;4.18;;;15.80;99.90;;;;;;7309896;32;20589;-67
2022/08/23 06:22:47;;;;;;;7.03;3.92;;;16.00;99.90;;;;;;7321016;32;20119;-68
2022/08/23 06:26:49;;;;;;;7.22;3.25;;;16.20;99.90;;;;;;7324945;32;20095;-69
2022/08/23 06:30:55;;;;;;;7.43;4.00;;;16.50;99.90;;;;;;7323473;32;20222;-67
2022/08/23 06:34:57;;;;;;;9.20;3.37;;;16.70;99.90;;;;;;7305179;32;20103;-68
2022/08/23 06:39:21;;;;;;;7.15;3.28;;;16.90;99.90;;;;;;7312620;32;20154;-68
2022/08/23 06:43:24;;;;;;;5.62;2.90;;;17.10;99.90;;;;;;7317843;32;20190;-67
2022/08/23 06:47:26;;;;;;;5.47;2.85;;;17.30;99.90;;;;;;7321607;32;20779;-66
2022/08/23 06:51:30;;;;;;;8.70;3.42;;;17.50;99.90;;;;;;7297917;32;20242;-67
2022/08/23 06:55:32;;;;;;;10.00;2.80;;;17.70;99.90;;;;;;7320364;32;20174;-68
2022/08/23 06:59:34;;;;;;;9.60;3.62;;;17.90;99.90;;;;;;7320962;32;20119;-66
2022/08/23 07:03:36;;;;;;;7.25;3.10;;;18.20;99.90;;;;;;7317771;32;20706;-67
2022/08/23 07:07:37;;;;;;;9.40;3.20;;;18.40;99.90;;;;;;7317954;32;20122;-69
2022/08/23 07:11:45;;;;;;;;;;;18.70;99.90;;;;;;7315100;32;20807;-67
2022/08/23 07:15:46;;;;;;;5.32;2.45;;;19.00;99.90;;;;;;7320554;32;20118;-66
2022/08/23 07:19:51;;;;;;;5.32;2.83;;;19.50;99.90;;;;;;7311593;32;20711;-67
2022/08/23 07:23:53;;;;;;;4.47;2.47;;;20.00;99.90;;;;;;7318819;32;20216;-68
2022/08/23 07:27:55;;;;;;;8.32;2.60;;;20.20;99.90;;;;;;7310714;32;20229;-68
2022/08/23 07:31:57;;;;;;;7.85;2.72;;;20.60;99.90;;;;;;7318182;32;20570;-68
2022/08/23 07:35:59;;;;;;;5.80;3.00;;;20.60;99.90;;;;;;7313866;32;20471;-66
2022/08/23 07:40:00;;;;;;;5.87;2.80;;;21.00;99.90;;;;;;7305060;32;20131;-67
2022/08/23 07:44:04;;;;;;;10.68;3.30;;;21.10;99.90;;;;;;7306595;32;20115;-68
2022/08/23 07:48:06;;;;;;;7.95;2.97;;;21.30;99.90;;;;;;7313331;32;20217;-66
2022/08/23 07:52:08;;;;;;;7.72;3.10;;;21.40;99.90;;;;;;7316532;32;20190;-68
2022/08/23 07:56:11;;;;;;;5.90;2.90;;;21.50;99.90;;;;;;7320217;32;20157;-68
2022/08/23 08:00:23;;;;;;;11.10;3.03;;;21.60;99.90;;;;;;7315902;32;20131;-67
2022/08/23 08:04:24;;;;;;;8.13;2.50;;;21.50;99.90;;;;;;7310558;32;20385;-68
2022/08/23 08:08:26;;;;;;;8.57;3.65;;;21.50;99.90;;;;;;7306366;32;20228;-67
2022/08/23 08:12:28;;;;;;;7.45;3.00;;;21.60;99.90;;;;;;7314248;32;20096;-66
2022/08/23 08:16:34;;;;;;;11.70;3.60;;;21.70;99.90;;;;;;7314358;32;20126;-68
2022/08/23 08:20:36;;;;;;;8.73;3.05;;;21.80;99.90;;;;;;7308732;32;21139;-67
2022/08/23 08:24:38;;;;;;;8.95;3.05;;;22.20;99.90;;;;;;7303083;32;20319;-68
2022/08/23 08:28:41;;;;;;;6.53;2.67;;;22.10;99.90;;;;;;7316729;32;20317;-67
2022/08/23 08:32:42;;;;;;;8.80;3.42;;;22.20;99.90;;;;;;7315703;32;20104;-67
2022/08/23 08:36:53;;;;;;;7.75;3.00;;;22.20;99.90;;;;;;7297986;32;20119;-66
2022/08/23 08:41:08;;;;;;;9.75;3.10;;;22.50;99.90;;;;;;7309121;32;20822;-68
2022/08/23 08:45:25;;;;;;;9.90;2.67;;;22.70;99.90;;;;;;7312769;32;20119;-68
2022/08/23 08:49:28;;;;;;;7.70;2.47;;;22.80;99.90;;;;;;7311567;32;20190;-68
2022/08/23 08:53:45;;;;;;;8.88;2.95;;;23.20;99.90;;;;;;7307816;32;20206;-69
2022/08/23 08:57:48;;;;;;;10.23;2.85;;;23.80;99.90;;;;;;7311695;32;20223;-68
2022/08/23 09:01:50;;;;;;;6.45;2.60;;;24.30;99.90;;;;;;7309359;32;20123;-67
2022/08/23 09:06:26;;;;;;;9.90;2.90;;;24.50;99.90;;;;;;7313425;32;20096;-67
2022/08/23 09:10:48;;;;;;;7.97;2.60;;;24.70;99.90;;;;;;7312244;32;20811;-67
2022/08/23 09:15:13;;;;;;;5.95;2.42;;;26.40;99.90;;;;;;7307911;32;20145;-68
2022/08/23 09:19:15;;;;;;;7.62;2.55;;;26.40;99.90;;;;;;7305925;32;20143;-68
2022/08/23 09:23:22;;;;;;;8.45;2.87;;;26.70;99.90;;;;;;7316628;32;20107;-69
2022/08/23 09:27:24;;;;;;;8.85;2.70;;;27.10;99.90;;;;;;7310571;32;20119;-68
2022/08/23 09:31:37;;;;;;;10.02;2.83;;;27.50;99.60;;;;;;7318233;32;20580;-68
2022/08/23 09:35:40;;;;;;;11.00;3.17;;;27.50;99.80;;;;;;7318528;32;20143;-68
2022/08/23 09:39:48;;;;;;;7.93;2.95;;;28.20;97.70;;;;;;7318113;32;21177;-70
2022/08/23 09:43:51;;;;;;;8.45;2.78;;;28.30;97.20;;;;;;7314415;32;21162;-70
2022/08/23 09:47:52;;;;;;;7.50;2.65;;;28.90;96.70;;;;;;7302115;32;20100;-69
2022/08/23 09:51:58;;;;;;;8.88;3.15;;;30.00;94.30;;;;;;7319092;32;20185;-68
2022/08/23 09:56:12;;;;;;;6.05;2.40;;;30.50;92.90;;;;;;7315546;32;20232;-65
2022/08/23 10:00:21;;;;;;;10.38;2.80;;;31.10;92.10;;;;;;7311299;32;20134;-67
2022/08/23 10:04:38;;;;;;;13.13;3.12;;;31.60;85.70;;;;;;7298318;32;20206;-68
2022/08/23 10:08:53;;;;;;;9.50;2.90;;;31.80;83.50;;;;;;7314479;32;20207;-68
2022/08/23 10:12:57;;;;;;;8.32;2.97;;;32.10;84.20;;;;;;7320926;32;20184;-67
2022/08/23 10:17:29;;;;;;;8.15;3.33;;;32.40;82.00;;;;;;7304791;32;20223;-68
2022/08/23 10:21:49;;;;;;;8.27;2.87;;;32.40;75.30;;;;;;7317485;32;20103;-69
2022/08/23 10:25:57;;;;;;;8.20;3.30;;;32.80;77.10;;;;;;7314385;32;20408;-68
2022/08/23 10:30:17;;;;;;;10.57;3.47;;;33.00;77.00;;;;;;7300688;32;20222;-63
2022/08/23 10:34:34;;;;;;;13.80;3.83;;;32.90;72.10;;;;;;7309141;32;20188;-66
2022/08/23 10:38:49;;;;;;;;;;;32.70;69.00;;;;;;7314634;32;20141;-68
2022/08/23 10:43:00;;;;;;;11.82;3.42;;;32.60;70.40;;;;;;7308866;32;20876;-67
2022/08/23 10:47:26;;;;;;;7.53;2.95;;;32.30;69.40;;;;;;7312116;32;20116;-69
2022/08/23 10:51:39;;;;;;;7.87;3.07;;;32.10;71.30;;;;;;7309718;32;20522;-57
2022/08/23 10:56:01;;;;;;;8.02;2.45;;;31.90;73.30;;;;;;7298038;32;20207;-69
2022/08/23 11:00:14;;;;;;;8.70;3.00;;;31.70;69.60;;;;;;7297388;32;20429;-68
2022/08/23 11:04:23;;;;;;;6.12;3.03;;;31.20;68.90;;;;;;7308709;32;20128;-68
2022/08/23 11:08:35;;;;;;;7.93;2.50;;;31.20;72.40;;;;;;7312909;32;20126;-68
2022/08/23 11:13:09;;;;;;;11.57;3.10;;;30.70;72.40;;;;;;7314386;32;20108;-69
2022/08/23 11:17:27;;;;;;;9.52;2.90;;;30.50;77.00;;;;;;7277554;32;20299;-67
2022/08/23 11:21:32;;;;;;;11.68;2.78;;;30.20;75.50;;;;;;7310653;32;20108;-68
2022/08/23 11:25:40;;;;;;;8.10;2.67;;;30.30;75.20;;;;;;7317688;32;20111;-69
2022/08/23 11:29:41;;;;;;;8.80;2.45;;;30.20;74.00;;;;;;7314363;32;20298;-69
2022/08/23 11:33:50;;;;;;;8.38;2.90;;;29.90;71.20;;;;;;7317001;32;20719;-70
2022/08/23 11:37:59;;;;;;;5.97;2.20;;;30.10;75.70;;;;;;7300724;32;20230;-68
2022/08/23 11:42:07;;;;;;;12.90;3.03;;;30.20;74.20;;;;;;7299969;32;20219;-69
2022/08/23 11:46:15;;;;;;;5.93;2.40;;;30.30;70.90;;;;;;7309541;32;20202;-69
2022/08/23 11:50:58;;;;;;;6.65;2.67;;;30.30;70.90;;;;;;7314433;32;20643;-70
2022/08/23 11:55:16;;;;;;;7.18;2.22;;;30.60;69.40;;;;;;7292284;32;20219;-70
2022/08/23 11:59:33;;;;;;;8.57;2.28;;;31.20;68.30;;;;;;7295527;32;20143;-70
2022/08/23 12:03:51;;;;;;;5.78;2.30;;;31.30;67.20;;;;;;7314824;32;20272;-68
2022/08/23 12:08:02;;;;;;;5.62;2.60;;;31.20;68.30;;;;;;7304859;32;20270;-69
2022/08/23 12:12:23;;;;;;;8.65;2.30;;;31.20;66.50;;;;;;7312980;32;20119;-68
2022/08/23 12:16:28;;;;;;;7.97;2.00;;;31.20;67.90;;;;;;7299270;32;20233;-68
2022/08/23 12:20:32;;;;;;;8.02;2.58;;;30.90;66.80;;;;;;7297049;32;20524;-67
2022/08/23 12:25:10;;;;;;;7.85;2.15;;;31.00;68.10;;;;;;7313521;32;20318;-68
2022/08/23 12:29:29;;;;;;;5.75;2.08;;;30.90;66.80;;;;;;7315631;32;20130;-68
2022/08/23 12:33:34;;;;;;;6.12;1.67;;;31.00;67.80;;;;;;7316618;32;20230;-67
2022/08/23 12:38:07;;;;;;;6.03;1.52;;;30.80;66.00;;;;;;7308632;32;20207;-68
2022/08/23 12:42:14;;;;;;;8.27;1.95;;;30.60;66.00;;;;;;7314789;32;20163;-67
2022/08/23 12:46:32;;;;;;;7.97;2.50;;;30.00;69.40;;;;;;7313367;32;20140;-69
2022/08/23 12:50:36;;;;;;;9.82;2.25;;;30.00;70.10;;;;;;7313193;32;20112;-68
2022/08/23 12:54:45;;;;;;;9.18;2.55;;;30.00;71.70;;;;;;7303741;32;20567;-68
2022/08/23 12:58:54;;;;;;;6.72;2.20;;;30.20;71.10;;;;;;7323691;32;20146;-68
2022/08/23 13:03:11;;;;;;;7.20;2.10;;;30.40;69.50;;;;;;7303717;32;20663;-67
2022/08/23 13:07:19;;;;;;;10.02;2.20;;;30.30;70.10;;;;;;7315578;32;20251;-66
2022/08/23 13:11:24;;;;;;;7.10;2.35;;;30.20;70.60;;;;;;7317936;32;20142;-68
2022/08/23 13:16:21;;;;;;;5.80;2.03;;;30.50;69.00;;;;;;7314209;32;20636;-68
2022/08/23 13:20:28;;;;;;;7.80;1.90;;;30.60;70.30;;;;;;7292713;32;20426;-68
2022/08/23 13:24:36;;;;;;;4.85;1.80;;;30.40;70.30;;;;;;7313589;32;20107;-68
2022/08/23 13:28:39;;;;;;;7.90;1.83;;;30.40;69.90;;;;;;7316887;32;20874;-68
2022/08/23 13:32:45;;;;;;;6.68;2.50;;;30.60;70.80;;;;;;7308090;32;20214;-69
2022/08/23 13:36:48;;;;;;;6.68;2.12;;;30.70;68.30;;;;;;7305548;32;20851;-68
2022/08/23 13:40:54;;;;;;;8.63;2.12;;;30.70;68.50;;;;;;7306767;32;20148;-67
2022/08/23 13:44:56;;;;;;;6.05;2.35;;;30.70;67.70;;;;;;7309216;32;20531;-68
2022/08/23 13:49:04;;;;;;;6.62;1.90;;;30.80;66.50;;;;;;7312637;32;20501;-68
2022/08/23 13:53:07;;;;;;;6.90;2.20;;;30.70;70.70;;;;;;7315148;32;20104;-67
2022/08/23 13:57:16;;;;;;;8.63;1.83;;;30.80;69.00;;;;;;7304855;32;20096;-68
2022/08/23 14:01:19;;;;;;;6.70;2.00;;;30.90;70.50;;;;;;7312473;32;20227;-67
2022/08/23 14:05:21;;;;;;;6.75;2.33;;;30.90;68.40;;;;;;7321176;32;20139;-68
2022/08/23 14:09:23;;;;;;;5.75;1.90;;;30.70;68.90;;;;;;7310685;32;20335;-68
2022/08/23 14:13:28;;;;;;;4.43;1.75;;;30.60;69.10;;;;;;7314835;32;20137;-69
2022/08/23 14:17:38;;;;;;;8.38;1.80;;;30.60;69.40;;;;;;7301921;32;20115;-69
2022/08/23 14:21:40;;;;;;;7.60;1.70;;;31.10;69.60;;;;;;7318364;32;20112;-69
2022/08/23 14:25:42;;;;;;;5.30;1.60;;;31.20;68.40;;;;;;7313459;32;20298;-67
2022/08/23 14:29:44;;;;;;;4.50;1.30;;;31.50;69.20;;;;;;7315726;32;20234;-68
2022/08/23 14:33:47;;;;;;;4.12;1.48;;;31.60;67.40;;;;;;7314853;32;20124;-69
2022/08/23 14:37:49;;;;;;;14.55;2.30;;;31.40;67.90;;;;;;7313490;32;20377;-68
2022/08/23 14:42:06;;;;;;;5.47;1.60;;;31.00;68.40;;;;;;7309547;32;20167;-68
2022/08/23 14:46:08;;;;;;;5.28;1.55;;;30.90;68.90;;;;;;7302508;32;20129;-66
2022/08/23 14:50:12;;;;;;;4.95;1.30;;;30.50;69.40;;;;;;7315839;32;20112;-68
2022/08/23 14:54:22;;;;;;;5.57;1.60;;;30.50;70.80;;;;;;7306213;32;20136;-68
2022/08/23 14:58:24;;;;;;;6.68;1.70;;;30.40;71.90;;;;;;7313378;32;20646;-69
2022/08/23 15:02:28;;;;;;;6.97;1.48;;;30.20;73.40;;;;;;7314920;32;20104;-67
2022/08/23 15:06:30;;;;;;;5.20;1.40;;;30.20;73.10;;;;;;7316592;32;20154;-67
2022/08/23 15:10:31;;;;;;;7.05;1.67;;;30.10;72.90;;;;;;7315646;32;20112;-67
2022/08/23 15:14:53;;;;;;;6.47;1.80;;;30.00;72.50;;;;;;7309911;32;20279;-67
2022/08/23 15:18:58;;;;;;;6.65;1.40;;;30.00;73.40;;;;;;7315508;32;20137;-68
2022/08/23 15:23:00;;;;;;;4.32;1.50;;;29.90;71.90;;;;;;7322648;32;20535;-67
2022/08/23 15:27:05;;;;;;;4.35;1.70;;;29.90;73.60;;;;;;7325105;32;20119;-67
2022/08/23 15:31:08;;;;;;;8.05;1.60;;;29.80;74.00;;;;;;7320985;32;20237;-67
2022/08/23 15:35:10;;;;;;;5.18;1.42;;;29.70;71.90;;;;;;7313068;32;20116;-66
2022/08/23 15:39:13;;;;;;;6.03;1.65;;;29.50;74.10;;;;;;7317984;32;20786;-68
2022/08/23 15:43:14;;;;;;;4.57;1.58;;;29.30;74.30;;;;;;7306568;32;20111;-68
2022/08/23 15:47:25;;;;;;;4.53;1.60;;;29.30;75.20;;;;;;7315554;32;20111;-71
2022/08/23 15:51:27;;;;;;;4.57;1.60;;;29.10;75.30;;;;;;7313735;32;20191;-71
2022/08/23 15:55:31;;;;;;;3.47;1.35;;;29.00;76.70;;;;;;7313100;32;20147;-70
2022/08/23 15:59:36;;;;;;;5.47;1.50;;;28.80;77.10;;;;;;7293121;32;20226;-69
2022/08/23 16:03:46;;;;;;;3.47;1.40;;;28.70;77.90;;;;;;7312310;32;20496;-70
2022/08/23 16:07:52;;;;;;;4.22;1.55;;;28.80;76.50;;;;;;7312775;32;20116;-71
2022/08/23 16:11:53;;;;;;;4.47;1.48;;;28.60;77.90;;;;;;7315357;32;20250;-70
2022/08/23 16:16:02;;;;;;;4.45;1.62;;;28.40;76.80;;;;;;7311484;32;20112;-70
2022/08/23 16:20:06;;;;;;;5.05;1.40;;;28.60;78.20;;;;;;7318411;32;20359;-70
2022/08/23 16:24:08;;;;;;;4.87;1.30;;;28.50;78.10;;;;;;7309078;32;20112;-68
2022/08/23 16:28:10;;;;;;;3.28;1.10;;;28.50;78.30;;;;;;7306517;32;20237;-72
2022/08/23 16:32:11;;;;;;;3.62;1.33;;;28.30;79.10;;;;;;7306480;32;20498;-70
2022/08/23 16:36:16;;;;;;;6.07;1.45;;;28.30;79.30;;;;;;7316693;32;20186;-69
2022/08/23 16:40:18;;;;;;;2.67;1.20;;;28.30;78.40;;;;;;7309601;32;20107;-70
2022/08/23 16:44:20;;;;;;;4.55;1.20;;;28.20;79.20;;;;;;7316046;32;20454;-65
2022/08/23 16:48:22;;;;;;;5.62;1.05;;;28.00;80.20;;;;;;7306298;32;20165;-65
2022/08/23 16:52:24;;;;;;;7.40;2.67;;;27.90;81.40;;;;;;7314403;32;20213;-65
2022/08/23 16:56:36;;;;;;;5.80;1.12;;;27.90;80.80;;;;;;7305709;32;20656;-65
2022/08/23 17:00:38;;;;;;;5.03;1.20;;;27.80;81.90;;;;;;7310284;32;20153;-66
2022/08/23 17:04:40;;;;;;;4.80;1.00;;;27.70;82.30;;;;;;7319528;32;20366;-66
2022/08/23 17:08:42;;;;;;;5.72;1.50;;;27.60;83.20;;;;;;7317106;32;20244;-65
2022/08/23 17:12:46;;;;;;;5.90;1.00;;;27.60;84.10;;;;;;7315898;32;20299;-68
2022/08/23 17:16:49;;;;;;;3.50;1.10;;;27.50;83.30;;;;;;7314999;32;20099;-69
2022/08/23 17:20:51;;;;;;;3.30;0.82;;;27.30;83.50;;;;;;7315503;32;20103;-70
2022/08/23 17:24:52;;;;;;;3.65;0.90;;;27.20;83.70;;;;;;7312890;32;20178;-67
2022/08/23 17:28:55;;;;;;;5.20;1.00;;;27.10;84.90;;;;;;7312296;32;20259;-67
2022/08/23 17:32:57;;;;;;;3.95;1.00;;;27.00;84.10;;;;;;7303524;32;20147;-66
2022/08/23 17:36:59;;;;;;;6.40;1.10;;;26.90;84.90;;;;;;7319090;32;20246;-66
2022/08/23 17:41:01;;;;;;;5.30;1.17;;;26.90;84.30;;;;;;7303670;32;20176;-68
2022/08/23 17:45:05;;;;;;;5.93;1.12;;;26.80;84.90;;;;;;7321633;32;20211;-65
2022/08/23 17:49:07;;;;;;;4.15;1.02;;;26.60;86.30;;;;;;7318716;32;20115;-68
2022/08/23 17:53:10;;;;;;;5.18;1.02;;;26.50;87.70;;;;;;7303096;32;20200;-66
2022/08/23 17:57:12;;;;;;;3.03;1.20;;;26.30;87.60;;;;;;7316809;32;20667;-56
2022/08/23 18:01:15;;;;;;;3.33;1.33;;;26.20;89.10;;;;;;7318414;32;20468;-65
2022/08/23 18:05:18;;;;;;;5.90;1.10;;;26.00;90.90;;;;;;7317037;32;20132;-66
2022/08/23 18:09:20;;;;;;;5.15;1.35;;;25.70;92.70;;;;;;7318698;32;20108;-65
2022/08/23 18:13:22;;;;;;;3.47;1.10;;;25.50;94.40;;;;;;7320271;32;20215;-66
2022/08/23 18:17:24;;;;;;;3.50;1.33;;;25.30;96.80;;;;;;7321135;32;20341;-66
2022/08/23 18:21:27;;;;;;;6.28;1.40;;;24.90;99.90;;;;;;7317879;32;20784;-66
2022/08/23 18:25:31;;;;;;;5.40;1.35;;;24.70;99.90;;;;;;7318271;32;20107;-69
2022/08/23 18:29:35;;;;;;;10.50;1.52;;;24.40;99.90;;;;;;7312678;32;20218;-68
2022/08/23 18:33:38;;;;;;;6.57;1.45;;;24.10;99.90;;;;;;7315807;32;20731;-67
2022/08/23 18:37:48;;;;;;;7.20;1.42;;;23.90;99.90;;;;;;7318463;32;20127;-68
2022/08/23 18:41:49;;;;;;;10.23;1.50;;;23.60;99.90;;;;;;7319310;32;20510;-66
2022/08/23 18:45:53;;;;;;;4.45;1.52;;;23.40;99.90;;;;;;7317647;32;20199;-68
2022/08/23 18:49:55;;;;;;;6.15;1.80;;;23.20;99.90;;;;;;7305225;32;20245;-66
2022/08/23 18:53:57;;;;;;;6.50;1.83;;;23.00;99.90;;;;;;7312385;32;20111;-67
2022/08/23 18:58:00;;;;;;;6.47;1.83;;;22.80;99.90;;;;;;7312791;32;20143;-67
2022/08/23 19:02:01;;;;;;;7.47;1.95;;;22.60;99.90;;;;;;7312577;32;20115;-67
2022/08/23 19:06:04;;;;;;;8.70;1.77;;;22.40;99.90;;;;;;7315488;32;20126;-67
2022/08/23 19:10:06;;;;;;;7.18;2.17;;;22.20;99.90;;;;;;7312533;32;20146;-68
2022/08/23 19:14:10;;;;;;;4.90;1.87;;;21.90;99.90;;;;;;7321627;32;20179;-68
2022/08/23 19:18:12;;;;;;;3.72;1.80;;;21.90;99.90;;;;;;7313710;32;20135;-67
2022/08/23 19:22:14;;;;;;;5.45;1.83;;;21.70;99.90;;;;;;7317300;32;20781;-67
2022/08/23 19:26:18;;;;;;;6.10;2.35;;;21.50;99.90;;;;;;7317481;32;20608;-68
2022/08/23 19:30:21;;;;;;;7.55;1.87;;;21.40;99.90;;;;;;7319371;32;20172;-67
2022/08/23 19:34:23;;;;;;;8.80;1.85;;;21.30;99.90;;;;;;7318770;32;20167;-67
2022/08/23 19:38:26;;;;;;;6.87;1.85;;;21.10;99.90;;;;;;7328782;32;20205;-68
2022/08/23 19:42:28;;;;;;;4.45;2.05;;;20.90;99.90;;;;;;7328141;32;20218;-67
2022/08/23 19:46:31;;;;;;;5.82;1.90;;;20.80;99.90;;;;;;7325019;32;20168;-68
2022/08/23 19:50:33;;;;;;;9.65;2.37;;;20.70;99.90;;;;;;7302484;32;20219;-69
2022/08/23 19:54:35;;;;;;;9.38;2.03;;;20.70;99.90;;;;;;7312322;32;20630;-69
2022/08/23 19:58:37;;;;;;;6.50;1.70;;;20.50;99.90;;;;;;7316654;32;20111;-68
2022/08/23 20:02:40;;;;;;;6.87;2.30;;;20.30;99.90;;;;;;7315198;32;20768;-66
2022/08/23 20:06:42;;;;;;;6.72;1.90;;;20.20;99.90;;;;;;7315640;32;20212;-68
2022/08/23 20:10:44;;;;;;;8.20;2.12;;;20.10;99.90;;;;;;7314339;32;20125;-67
2022/08/23 20:14:48;;;;;;;3.67;1.87;;;20.00;99.90;;;;;;7324625;32;20178;-68
2022/08/23 20:18:54;;;;;;;6.60;1.95;;;20.00;99.90;;;;;;7320512;32;20241;-68
2022/08/23 20:27:16;;;;;;;5.47;2.12;;;19.90;99.90;;;;;;7322736;32;20746;-69
2022/08/23 20:31:34;;;;;;;9.55;2.78;;;19.90;99.90;;;;;;7319593;32;20696;-67
2022/08/23 20:35:36;;;;;;;6.40;1.95;;;19.80;99.90;;;;;;7318912;32;20142;-69
2022/08/23 20:39:38;;;;;;;5.47;2.17;;;19.80;99.90;;;;;;7317808;32;20104;-64
2022/08/23 20:43:40;;;;;;;6.85;2.03;;;19.70;99.90;;;;;;7297337;32;20125;-67
2022/08/23 20:47:42;;;;;;;8.05;2.10;;;19.70;99.90;;;;;;7313620;32;20167;-67
2022/08/23 20:51:44;;;;;;;9.55;2.10;;;19.60;99.90;;;;;;7311473;32;20245;-67
2022/08/23 20:55:46;;;;;;;4.62;1.95;;;19.50;99.90;;;;;;7315417;32;20195;-67
2022/08/23 20:59:48;;;;;;;4.72;1.80;;;19.50;99.90;;;;;;7297165;32;20181;-66
2022/08/23 21:03:50;;;;;;;5.80;1.92;;;19.50;99.90;;;;;;7310529;32;20181;-66
2022/08/23 21:07:54;;;;;;;6.65;1.90;;;19.40;99.90;;;;;;7313848;32;20222;-66
2022/08/23 21:11:56;;;;;;;8.18;2.20;;;19.40;99.90;;;;;;7299557;32;20244;-67
2022/08/23 21:15:59;;;;;;;8.75;2.10;;;19.30;99.90;;;;;;7319635;32;20250;-66
2022/08/23 21:20:01;;;;;;;4.15;1.70;;;19.30;99.90;;;;;;7321424;32;20123;-66
2022/08/23 21:24:04;;;;;;;4.37;1.98;;;19.20;99.90;;;;;;7321760;32;20119;-65
2022/08/23 21:28:07;;;;;;;5.37;1.77;;;19.20;99.90;;;;;;7318886;32;20350;-65
2022/08/23 21:32:08;;;;;;;5.53;2.42;;;19.10;99.90;;;;;;7317597;32;20211;-66
2022/08/23 21:36:12;;;;;;;5.47;1.90;;;19.10;99.90;;;;;;7324002;32;20218;-64